Airfield :
LOGIN :

Register | Disclaimer

   EN    FR    IT 

 










Legend :    VFR   Marginal VFR   IFR   Intensive IFR   Very Intensive IFR
Visi :
Ceiling :
>= 8 km
>= 3000ft
5 to 8 km
1000 to 3000 ft
1500m to 5 km
500 to 1000 ft
800 to 1500m
200 to 500 ft
< 800m
< 200 ft
Symbols :   Thunderstorms  Fog  Heavy snow  Heavy precipitations  Wind > 20 kt
SIGMETs :     Misc.  Thunderstorms  Icing  Turbulence  Mountain Waves  Volcanic Ashes







- Airport Elevation : 495 ft
- IATA code : BUD


LHBP - Budapest Ferihegy

CURRENT METAR :
  • 250930Z 30005KT 9999 SCT045 20/09 Q1018 NOSIG

EXPIRED METARs :
  • 250900Z 35005KT 280V030 9999 SCT045 20/09 Q1018 NOSIG
  • 250830Z 32005KT 260V360 9999 SCT044 19/09 Q1018 NOSIG
  • 250800Z 33005KT 260V050 9999 SCT038 19/09 Q1018 NOSIG
  • 250730Z 33005KT 260V040 9999 FEW037 19/09 Q1018 NOSIG
  • 250700Z 31007KT 260V340 9999 FEW040 19/08 Q1018 NOSIG

TAF TAF LHBP
Valid from the 25 at 06:00 until the 26 at 06:00 UTC


250515Z 2506/2606 VRB03KT CAVOK
BECMG 2506/2508 32007KT
TEMPO 2508/2512 SCT040
TEMPO 2513/2517 VRB03KT
TEMPO 2516/2522 -SHRA SCT043 BKN100
BECMG 2519/2521 VRB03KT
No reported NOTAMs for that airfield.



MET'MAP, your aeronautical weather chart ! - Copyright ORBIFLY December 2007 - Disclaimer

ORBIFLY MET'MAP TEAM :

Programming & Development : Alexandra Zaïnal
Concept & Development : Baudouin d'Aumeries
Co-Development & Prog : Marc-Olivier Méhu
Technical & hardware support : Manuel Goepfert

Contact : metmap@orbifly.com




SOURCES & CREDITS :

   NOAA